createdAt,value
2022-10-01T00:01:19.564Z,11.60
2022-10-01T00:03:47.732Z,11.60
2022-10-01T00:06:20.118Z,11.60
2022-10-01T00:08:49.263Z,11.50
2022-10-01T00:11:19.217Z,11.50
2022-10-01T00:13:46.335Z,11.40
2022-10-01T00:16:17.054Z,11.50
2022-10-01T00:18:46.173Z,11.50
2022-10-01T00:21:18.596Z,11.50
2022-10-01T00:23:46.169Z,11.60
2022-10-01T00:26:21.805Z,11.60
2022-10-01T00:28:53.353Z,11.60
2022-10-01T00:31:20.569Z,11.50
2022-10-01T00:33:48.527Z,11.50
2022-10-01T00:36:15.488Z,11.50
2022-10-01T00:38:42.380Z,11.50
2022-10-01T00:41:10.460Z,11.50
2022-10-01T00:43:42.605Z,11.50
2022-10-01T00:46:33.219Z,11.50
2022-10-01T00:49:08.492Z,11.60
2022-10-01T00:51:40.355Z,11.60
2022-10-01T00:54:17.417Z,11.60
2022-10-01T00:56:46.416Z,11.60
2022-10-01T00:59:16.285Z,11.70
2022-10-01T01:01:43.320Z,11.70
2022-10-01T01:04:16.782Z,11.70
2022-10-01T01:06:55.899Z,11.80
2022-10-01T01:09:25.512Z,11.80
2022-10-01T01:11:58.573Z,11.70
2022-10-01T01:14:32.836Z,11.70
2022-10-01T01:17:08.710Z,11.70
2022-10-01T01:19:47.555Z,11.70
2022-10-01T01:22:14.950Z,11.70
2022-10-01T01:24:50.869Z,11.80
2022-10-01T01:27:44.000Z,11.80
2022-10-01T01:30:15.040Z,11.70
2022-10-01T01:32:52.398Z,11.80
2022-10-01T01:35:44.662Z,11.80
2022-10-01T01:38:15.528Z,11.80
2022-10-01T01:40:45.086Z,11.80
2022-10-01T01:43:18.596Z,11.80
2022-10-01T01:45:47.179Z,11.80
2022-10-01T01:48:14.956Z,11.80
2022-10-01T01:50:54.802Z,11.80
2022-10-01T01:53:21.854Z,11.80
2022-10-01T01:55:49.624Z,11.90
2022-10-01T01:58:20.535Z,11.90
2022-10-01T02:00:52.428Z,11.90
2022-10-01T02:03:25.590Z,11.90
2022-10-01T02:05:58.282Z,11.80
2022-10-01T02:08:35.741Z,11.70
2022-10-01T02:11:28.342Z,11.60
2022-10-01T02:14:21.357Z,11.50
2022-10-01T02:17:02.053Z,11.40
2022-10-01T02:19:33.745Z,11.30
2022-10-01T02:22:02.015Z,11.30
2022-10-01T02:24:46.404Z,11.20
2022-10-01T02:27:29.076Z,11.20
2022-10-01T02:29:59.335Z,11.20
2022-10-01T02:32:28.812Z,11.20
2022-10-01T02:34:56.554Z,11.20
2022-10-01T02:37:26.570Z,11.20
2022-10-01T02:39:56.378Z,11.30
2022-10-01T02:42:27.022Z,11.30
2022-10-01T02:44:55.768Z,11.30
2022-10-01T02:47:28.272Z,11.30
2022-10-01T02:49:55.251Z,11.40
2022-10-01T02:52:55.672Z,11.50
2022-10-01T02:55:30.750Z,11.50
2022-10-01T02:57:58.219Z,11.60
2022-10-01T03:00:27.045Z,11.40
2022-10-01T03:02:54.311Z,11.20
2022-10-01T03:05:21.847Z,11.00
2022-10-01T03:07:49.014Z,10.90
2022-10-01T03:10:16.494Z,10.70
2022-10-01T03:12:46.658Z,10.50
2022-10-01T03:15:15.477Z,10.40
2022-10-01T03:17:42.728Z,10.30
2022-10-01T03:20:10.845Z,10.20
2022-10-01T03:22:37.917Z,10.10
2022-10-01T03:25:05.155Z,10.10
2022-10-01T03:27:32.262Z,10.00
2022-10-01T03:29:59.138Z,9.90
2022-10-01T03:32:26.068Z,9.90
2022-10-01T03:34:52.979Z,9.80
2022-10-01T03:37:19.897Z,9.80
2022-10-01T03:39:47.095Z,9.90
2022-10-01T03:42:14.138Z,9.80
2022-10-01T03:44:41.024Z,9.80
2022-10-01T03:47:07.958Z,9.80
2022-10-01T03:49:35.515Z,9.80
2022-10-01T03:52:04.069Z,9.80
2022-10-01T03:54:31.220Z,9.80
2022-10-01T03:56:58.623Z,9.80
2022-10-01T03:59:27.296Z,9.80
2022-10-01T04:01:54.609Z,9.80
2022-10-01T04:04:21.669Z,9.80
2022-10-01T04:06:48.736Z,9.80
2022-10-01T04:09:15.664Z,9.80
2022-10-01T04:11:42.541Z,9.80
2022-10-01T04:14:09.477Z,9.80
2022-10-01T04:16:36.562Z,9.70
2022-10-01T04:19:04.684Z,9.70
2022-10-01T04:21:32.019Z,9.70
2022-10-01T04:23:59.756Z,9.70
2022-10-01T04:26:27.067Z,9.70
2022-10-01T04:28:53.995Z,9.70
2022-10-01T04:31:27.150Z,9.70
2022-10-01T04:33:56.540Z,9.60
2022-10-01T04:36:24.602Z,9.70
2022-10-01T04:39:00.778Z,9.60
2022-10-01T04:41:30.866Z,9.60
2022-10-01T04:44:01.558Z,9.60
2022-10-01T04:46:30.413Z,9.50
2022-10-01T04:48:57.735Z,9.50
2022-10-01T04:51:24.675Z,9.50
2022-10-01T04:53:51.580Z,9.40
2022-10-01T04:56:18.510Z,9.40
2022-10-01T04:58:45.484Z,9.40
2022-10-01T05:01:12.348Z,9.40
2022-10-01T05:03:39.884Z,9.40
2022-10-01T05:06:06.866Z,9.40
2022-10-01T05:08:33.797Z,9.30
2022-10-01T05:11:00.727Z,9.40
2022-10-01T05:13:30.300Z,9.40
2022-10-01T05:15:58.097Z,9.30
2022-10-01T05:18:25.155Z,9.30
2022-10-01T05:20:52.096Z,9.30
2022-10-01T05:23:19.025Z,9.30
2022-10-01T05:25:47.135Z,9.40
2022-10-01T05:28:17.204Z,9.30
2022-10-01T05:30:48.111Z,9.30
2022-10-01T05:33:15.183Z,9.30
2022-10-01T05:35:42.341Z,9.30
2022-10-01T05:38:09.864Z,9.30
2022-10-01T05:40:36.889Z,9.30
2022-10-01T05:43:04.686Z,9.40
2022-10-01T05:45:32.053Z,9.40
2022-10-01T05:48:04.610Z,9.30
2022-10-01T05:50:34.682Z,9.40
2022-10-01T05:53:02.429Z,9.40
2022-10-01T05:55:34.597Z,9.40
2022-10-01T05:58:06.817Z,9.50
2022-10-01T06:00:34.700Z,9.50
2022-10-01T06:03:03.348Z,9.60
2022-10-01T06:05:31.965Z,9.60
2022-10-01T06:07:59.889Z,9.60
2022-10-01T06:10:29.452Z,9.60
2022-10-01T06:13:01.874Z,9.70
2022-10-01T06:15:30.024Z,9.70
2022-10-01T06:17:57.122Z,9.70
2022-10-01T06:20:24.159Z,9.80
2022-10-01T06:22:56.281Z,9.80
2022-10-01T06:25:24.105Z,9.80
2022-10-01T06:27:56.419Z,9.80
2022-10-01T06:30:27.602Z,9.90
2022-10-01T06:33:00.555Z,9.90
2022-10-01T06:35:27.425Z,10.00
2022-10-01T06:37:54.311Z,10.00
2022-10-01T06:40:21.566Z,10.00
2022-10-01T06:42:52.738Z,10.00
2022-10-01T06:45:23.399Z,10.10
2022-10-01T06:47:58.466Z,10.10
2022-10-01T06:50:25.954Z,10.10
2022-10-01T06:52:53.455Z,10.10
2022-10-01T06:55:25.607Z,10.20
2022-10-01T06:57:58.463Z,10.20
2022-10-01T07:00:29.699Z,10.20
2022-10-01T07:02:57.028Z,10.20
2022-10-01T07:05:25.596Z,10.30
2022-10-01T07:07:53.712Z,10.20
2022-10-01T07:10:23.111Z,10.30
2022-10-01T07:12:50.677Z,10.30
2022-10-01T07:15:19.646Z,10.40
2022-10-01T07:17:51.437Z,10.50
2022-10-01T07:20:20.205Z,10.50
2022-10-01T07:22:48.859Z,10.50
2022-10-01T07:25:16.173Z,10.50
2022-10-01T07:27:43.091Z,10.60
2022-10-01T07:30:10.510Z,10.60
2022-10-01T07:32:37.405Z,10.60
2022-10-01T07:35:05.908Z,10.60
2022-10-01T07:37:32.841Z,10.60
2022-10-01T07:40:02.973Z,10.60
2022-10-01T07:42:32.250Z,10.70
2022-10-01T07:44:59.138Z,10.70
2022-10-01T07:47:26.030Z,10.70
2022-10-01T07:49:52.927Z,10.80
2022-10-01T07:52:19.824Z,10.80
2022-10-01T07:54:48.051Z,10.80
2022-10-01T07:57:15.469Z,10.80
2022-10-01T07:59:42.914Z,10.90
2022-10-01T08:02:17.055Z,10.90
2022-10-01T08:05:02.413Z,10.90
2022-10-01T08:07:31.857Z,10.90
2022-10-01T08:09:58.773Z,11.00
2022-10-01T08:12:28.974Z,11.00
2022-10-01T08:14:56.015Z,11.00
2022-10-01T08:17:27.245Z,11.00
2022-10-01T08:19:56.186Z,11.00
2022-10-01T08:22:23.073Z,11.10
2022-10-01T08:24:49.930Z,11.10
2022-10-01T08:27:16.877Z,11.10
2022-10-01T08:29:43.765Z,11.10
2022-10-01T08:32:11.030Z,11.20
2022-10-01T08:34:37.942Z,11.30
2022-10-01T08:37:05.245Z,11.40
2022-10-01T08:39:32.279Z,11.50
2022-10-01T08:42:02.171Z,11.50
2022-10-01T08:44:35.081Z,11.50
2022-10-01T08:47:13.986Z,11.50
2022-10-01T08:49:48.516Z,11.60
2022-10-01T08:52:15.335Z,11.60
2022-10-01T08:55:10.728Z,11.60
2022-10-01T08:57:42.894Z,11.60
2022-10-01T09:00:16.319Z,11.60
2022-10-01T09:02:44.882Z,11.70
2022-10-01T09:05:36.870Z,11.70
2022-10-01T09:08:47.672Z,11.70
2022-10-01T09:11:42.148Z,11.80
2022-10-01T09:14:11.796Z,11.80
2022-10-01T09:17:04.082Z,11.90
2022-10-01T09:19:50.388Z,11.90
2022-10-01T09:22:27.906Z,12.00
2022-10-01T09:25:27.496Z,12.00
2022-10-01T09:28:21.548Z,12.00
2022-10-01T09:31:15.550Z,12.10
2022-10-01T09:33:48.214Z,12.10
2022-10-01T09:36:26.440Z,12.10
2022-10-01T09:39:04.435Z,12.20
2022-10-01T09:41:31.656Z,12.40
2022-10-01T09:43:58.782Z,12.50
2022-10-01T09:46:26.672Z,12.70
2022-10-01T09:49:05.312Z,12.90
2022-10-01T09:51:42.687Z,12.90
2022-10-01T09:54:31.198Z,13.00
2022-10-01T09:57:12.843Z,13.00
2022-10-01T10:00:14.682Z,13.30
2022-10-01T10:02:48.502Z,13.70
2022-10-01T10:05:15.892Z,14.20
2022-10-01T10:07:49.443Z,14.50
2022-10-01T10:10:35.636Z,14.50
2022-10-01T10:13:11.942Z,14.20
2022-10-01T10:15:50.409Z,13.90
2022-10-01T10:18:24.042Z,13.80
2022-10-01T10:20:53.995Z,13.70
2022-10-01T10:23:22.879Z,13.80
2022-10-01T10:25:55.799Z,13.80
2022-10-01T10:28:24.413Z,13.90
2022-10-01T10:30:54.024Z,14.00
2022-10-01T10:33:23.151Z,14.00
2022-10-01T10:36:16.939Z,14.10
2022-10-01T10:38:49.673Z,13.90
2022-10-01T10:41:21.273Z,14.00
2022-10-01T10:43:49.289Z,14.10
2022-10-01T10:46:39.220Z,13.80
2022-10-01T10:49:41.952Z,14.00
2022-10-01T10:52:36.386Z,14.70
2022-10-01T10:55:31.139Z,15.10
2022-10-01T10:58:16.403Z,15.50
2022-10-01T11:00:52.090Z,16.10
2022-10-01T11:03:22.789Z,16.30
2022-10-01T11:05:52.880Z,15.90
2022-10-01T11:08:22.618Z,15.60
2022-10-01T11:11:13.234Z,15.40
2022-10-01T11:14:11.511Z,15.60
2022-10-01T11:16:47.465Z,15.70
2022-10-01T11:19:29.862Z,16.20
2022-10-01T11:28:41.736Z,16.20
2022-10-01T11:31:11.663Z,16.60
2022-10-01T11:34:01.238Z,16.50
2022-10-01T11:36:41.320Z,16.20
2022-10-01T11:39:18.374Z,16.20
2022-10-01T11:41:50.647Z,16.30
2022-10-01T11:44:40.958Z,16.40
2022-10-01T11:47:14.145Z,16.40
2022-10-01T11:50:16.448Z,16.10
2022-10-01T11:53:01.263Z,16.00
2022-10-01T11:56:09.001Z,16.40
2022-10-01T11:58:54.053Z,16.60
2022-10-01T12:01:24.007Z,16.40
2022-10-01T12:03:53.764Z,16.00
2022-10-01T12:06:34.403Z,15.90
2022-10-01T12:09:09.662Z,15.80
2022-10-01T12:12:01.244Z,15.70
2022-10-01T12:14:41.866Z,15.60
2022-10-01T12:17:26.406Z,15.60
2022-10-01T12:19:57.198Z,15.70
2022-10-01T12:22:31.215Z,15.70
2022-10-01T12:24:58.190Z,15.90
2022-10-01T12:27:44.381Z,16.10
2022-10-01T12:30:31.624Z,16.00
2022-10-01T12:33:21.966Z,15.80
2022-10-01T12:36:16.770Z,15.80
2022-10-01T12:39:04.659Z,15.70
2022-10-01T12:41:43.434Z,16.10
2022-10-01T12:44:45.743Z,16.70
2022-10-01T12:47:38.883Z,17.10
2022-10-01T12:50:19.143Z,17.20
2022-10-01T12:52:58.361Z,17.80
2022-10-01T12:56:07.277Z,17.90
2022-10-01T12:59:02.430Z,17.80
2022-10-01T13:01:58.790Z,18.10
2022-10-01T13:04:59.084Z,17.80
2022-10-01T13:07:29.098Z,17.50
2022-10-01T13:10:23.344Z,17.50
2022-10-01T13:13:04.389Z,17.70
2022-10-01T13:15:44.653Z,17.90
2022-10-01T13:18:26.525Z,18.40
2022-10-01T13:21:08.640Z,18.40
2022-10-01T13:24:32.757Z,17.80
2022-10-01T13:27:03.682Z,17.80
2022-10-01T13:29:45.168Z,17.50
2022-10-01T13:32:30.697Z,17.40
2022-10-01T13:34:59.745Z,17.00
2022-10-01T13:37:35.706Z,16.40
2022-10-01T13:40:04.465Z,15.80
2022-10-01T13:42:46.204Z,15.40
2022-10-01T13:45:22.324Z,15.10
2022-10-01T13:47:49.576Z,14.70
2022-10-01T13:50:24.894Z,13.10
2022-10-01T13:53:03.802Z,12.00
2022-10-01T13:55:32.315Z,11.50
2022-10-01T13:58:07.610Z,11.40
2022-10-01T14:00:34.545Z,11.40
2022-10-01T14:03:33.672Z,11.20
2022-10-01T14:06:04.047Z,11.10
2022-10-01T14:08:38.149Z,11.00
2022-10-01T14:11:34.374Z,10.90
2022-10-01T14:14:51.680Z,10.90
2022-10-01T14:17:24.770Z,10.90
2022-10-01T14:19:52.272Z,10.90
2022-10-01T14:22:49.494Z,10.90
2022-10-01T14:25:22.470Z,11.00
2022-10-01T14:28:18.365Z,11.10
2022-10-01T14:31:16.738Z,11.10
2022-10-01T14:33:58.406Z,11.40
2022-10-01T14:36:49.488Z,11.60
2022-10-01T14:39:22.190Z,12.20
2022-10-01T14:41:51.870Z,12.60
2022-10-01T14:44:32.028Z,12.60
2022-10-01T14:47:00.482Z,12.30
2022-10-01T14:49:33.099Z,12.30
2022-10-01T14:52:22.118Z,12.50
2022-10-01T14:54:51.534Z,12.70
2022-10-01T14:57:30.125Z,12.60
2022-10-01T15:00:00.293Z,12.50
2022-10-01T15:02:28.998Z,12.50
2022-10-01T15:04:57.431Z,12.90
2022-10-01T15:07:27.868Z,13.50
2022-10-01T15:10:06.292Z,13.90
2022-10-01T15:12:41.374Z,14.20
2022-10-01T15:15:27.689Z,14.50
2022-10-01T15:17:55.662Z,14.90
2022-10-01T15:20:22.934Z,15.00
2022-10-01T15:22:58.979Z,15.20
2022-10-01T15:25:31.254Z,15.40
2022-10-01T15:27:58.150Z,15.20
2022-10-01T15:30:27.810Z,15.10
2022-10-01T15:32:54.999Z,15.00
2022-10-01T15:35:23.538Z,14.60
2022-10-01T15:37:51.811Z,14.30
2022-10-01T15:40:31.346Z,14.10
2022-10-01T15:43:26.941Z,14.10
2022-10-01T15:46:09.967Z,14.20
2022-10-01T15:48:38.085Z,14.40
2022-10-01T15:51:25.477Z,14.50
2022-10-01T15:53:53.828Z,14.50
2022-10-01T15:56:24.336Z,14.60
2022-10-01T15:58:56.189Z,14.70
2022-10-01T16:01:29.388Z,14.70
2022-10-01T16:04:05.516Z,14.50
2022-10-01T16:06:40.570Z,14.30
2022-10-01T16:09:25.283Z,14.00
2022-10-01T16:11:55.261Z,13.90
2022-10-01T16:14:40.688Z,14.00
2022-10-01T16:17:19.757Z,14.10
2022-10-01T16:19:55.508Z,14.20
2022-10-01T16:22:34.387Z,14.20
2022-10-01T16:25:25.878Z,14.10
2022-10-01T16:28:02.273Z,14.00
2022-10-01T16:30:30.374Z,13.90
2022-10-01T16:33:00.246Z,13.90
2022-10-01T16:35:32.938Z,13.80
2022-10-01T16:38:00.013Z,13.70
2022-10-01T16:40:49.947Z,13.50
2022-10-01T16:43:20.309Z,13.30
2022-10-01T16:45:47.303Z,13.20
2022-10-01T16:48:22.352Z,13.20
2022-10-01T16:50:49.520Z,13.10
2022-10-01T16:53:18.291Z,13.00
2022-10-01T16:55:46.420Z,13.00
2022-10-01T16:58:13.726Z,12.90
2022-10-01T17:00:40.887Z,12.90
2022-10-01T17:03:14.001Z,12.80
2022-10-01T17:05:41.188Z,12.70
2022-10-01T17:08:14.645Z,12.70
2022-10-01T17:10:48.443Z,12.60
2022-10-01T17:13:16.283Z,12.60
2022-10-01T17:15:43.530Z,12.70
2022-10-01T17:18:10.456Z,12.60
2022-10-01T17:20:40.124Z,12.40
2022-10-01T17:23:07.615Z,12.30
2022-10-01T17:25:38.015Z,12.20
2022-10-01T17:28:08.131Z,12.20
2022-10-01T17:30:35.195Z,12.20
2022-10-01T17:33:02.183Z,12.10
2022-10-01T17:35:29.745Z,12.10
2022-10-01T17:37:57.162Z,12.00
2022-10-01T17:40:24.421Z,12.00
2022-10-01T17:42:51.497Z,12.20
2022-10-01T17:45:18.610Z,12.30
2022-10-01T17:47:47.784Z,12.50
2022-10-01T17:50:15.203Z,12.50
2022-10-01T17:52:42.158Z,12.50
2022-10-01T17:55:09.782Z,12.40
2022-10-01T17:57:36.721Z,12.40
2022-10-01T18:00:05.010Z,12.30
2022-10-01T18:02:43.373Z,12.20
2022-10-01T18:05:14.549Z,12.20
2022-10-01T18:07:42.015Z,12.10
2022-10-01T18:10:12.126Z,12.00
2022-10-01T18:12:39.439Z,11.90
2022-10-01T18:15:06.891Z,11.80
2022-10-01T18:17:36.373Z,11.80
2022-10-01T18:20:06.220Z,11.70
2022-10-01T18:22:34.387Z,11.60
2022-10-01T18:25:01.370Z,11.60
2022-10-01T18:27:28.249Z,11.60
2022-10-01T18:29:55.218Z,11.60
2022-10-01T18:32:31.363Z,11.60
2022-10-01T18:35:02.543Z,11.60
2022-10-01T18:37:54.771Z,11.70
2022-10-01T18:40:26.774Z,11.70
2022-10-01T18:43:15.815Z,11.60
2022-10-01T18:46:10.577Z,11.50
2022-10-01T18:49:21.443Z,11.50
2022-10-01T18:52:08.858Z,11.50
2022-10-01T18:54:44.606Z,11.50
2022-10-01T18:57:17.506Z,11.50
2022-10-01T18:59:55.676Z,11.60
2022-10-01T19:02:37.430Z,11.60
2022-10-01T19:05:24.901Z,11.60
2022-10-01T19:08:00.599Z,11.60
2022-10-01T19:10:48.574Z,11.60
2022-10-01T19:13:40.324Z,11.70
2022-10-01T19:16:29.098Z,11.80
2022-10-01T19:18:58.785Z,11.80
2022-10-01T19:21:29.979Z,11.90
2022-10-01T19:24:10.024Z,11.90
2022-10-01T19:26:55.117Z,11.80
2022-10-01T19:29:55.021Z,11.80
2022-10-01T19:32:25.704Z,11.70
2022-10-01T19:34:58.044Z,11.70
2022-10-01T19:37:39.302Z,11.70
2022-10-01T19:40:15.533Z,11.70
2022-10-01T19:42:48.037Z,11.70
2022-10-01T19:45:35.038Z,11.60
2022-10-01T19:48:18.218Z,11.70
2022-10-01T19:50:50.433Z,11.60
2022-10-01T19:53:33.933Z,11.70
2022-10-01T19:56:01.935Z,11.70
2022-10-01T19:58:30.656Z,11.60
2022-10-01T20:01:01.215Z,11.60
2022-10-01T20:03:40.116Z,11.60
2022-10-01T20:06:25.074Z,11.60
2022-10-01T20:08:59.211Z,11.70
2022-10-01T20:11:30.606Z,11.70
2022-10-01T20:14:48.499Z,11.70
2022-10-01T20:17:32.688Z,11.80
2022-10-01T20:20:18.590Z,11.80
2022-10-01T20:22:57.763Z,11.80
2022-10-01T20:25:31.336Z,11.80
2022-10-01T20:28:15.778Z,11.90
2022-10-01T20:31:16.358Z,11.90
2022-10-01T20:34:06.018Z,12.00
2022-10-01T20:36:42.717Z,12.00
2022-10-01T20:39:31.086Z,12.00
2022-10-01T20:41:59.942Z,11.90
2022-10-01T20:44:34.457Z,11.90
2022-10-01T20:47:06.591Z,11.90
2022-10-01T20:49:40.097Z,11.90
2022-10-01T20:52:22.161Z,12.00
2022-10-01T20:54:52.809Z,12.00
2022-10-01T20:57:39.090Z,11.90
2022-10-01T21:00:24.508Z,11.90
2022-10-01T21:03:04.798Z,12.00
2022-10-01T21:05:51.931Z,12.00
2022-10-01T21:08:21.775Z,11.90
2022-10-01T21:10:55.903Z,11.90
2022-10-01T21:13:29.014Z,11.80
2022-10-01T21:16:14.407Z,11.70
2022-10-01T21:19:03.226Z,11.80
2022-10-01T21:21:47.425Z,11.70
2022-10-01T21:24:31.666Z,11.70
2022-10-01T21:27:19.764Z,11.70
2022-10-01T21:30:05.466Z,11.70
2022-10-01T21:33:02.445Z,11.60
2022-10-01T21:35:48.119Z,11.60
2022-10-01T21:38:36.385Z,11.70
2022-10-01T21:41:34.980Z,11.60
2022-10-01T21:44:39.129Z,11.70
2022-10-01T21:47:27.374Z,11.80
2022-10-01T21:50:12.049Z,11.80
2022-10-01T21:53:36.209Z,11.70
2022-10-01T21:56:41.910Z,11.70
2022-10-01T21:59:37.285Z,11.60
2022-10-01T22:02:34.951Z,11.60
2022-10-01T22:05:23.285Z,11.50
2022-10-01T22:08:15.430Z,11.50
2022-10-01T22:10:51.810Z,11.50
2022-10-01T22:13:30.554Z,11.50
2022-10-01T22:16:02.484Z,11.50
2022-10-01T22:18:49.364Z,11.50
2022-10-01T22:21:37.059Z,11.50
2022-10-01T22:24:12.975Z,11.40
2022-10-01T22:26:45.616Z,11.40
2022-10-01T22:29:18.971Z,11.50
2022-10-01T22:31:47.486Z,11.50
2022-10-01T22:34:25.462Z,11.50
2022-10-01T22:36:52.296Z,11.40
2022-10-01T22:39:29.097Z,11.40
2022-10-01T22:42:21.109Z,11.20
2022-10-01T22:44:48.353Z,11.10
2022-10-01T22:47:24.226Z,11.10
2022-10-01T22:50:41.092Z,11.00
2022-10-01T22:53:37.049Z,11.10
2022-10-01T22:56:04.054Z,11.00
2022-10-01T22:58:39.686Z,10.90
2022-10-01T23:01:31.687Z,10.90
2022-10-01T23:04:20.583Z,10.80
2022-10-01T23:07:12.046Z,10.80
2022-10-01T23:09:43.508Z,10.70
2022-10-01T23:12:26.274Z,10.70
2022-10-01T23:15:06.936Z,10.60
2022-10-01T23:17:37.439Z,10.60
2022-10-01T23:20:13.261Z,10.60
2022-10-01T23:23:07.148Z,10.60
2022-10-01T23:26:10.030Z,10.60
2022-10-01T23:28:36.869Z,10.50
2022-10-01T23:31:13.261Z,10.50
2022-10-01T23:34:03.281Z,10.60
2022-10-01T23:36:59.488Z,10.60
2022-10-01T23:39:38.882Z,10.60
2022-10-01T23:42:29.727Z,10.60
2022-10-01T23:45:22.685Z,10.60
2022-10-01T23:48:19.290Z,10.70
2022-10-01T23:51:21.031Z,10.70
2022-10-01T23:53:59.493Z,10.80
2022-10-01T23:56:50.611Z,10.90
2022-10-01T23:59:20.620Z,10.90
